createdAt,value
2022-08-12T00:02:45.237Z,15.96
2022-08-12T00:05:32.024Z,15.92
2022-08-12T00:08:17.391Z,15.92
2022-08-12T00:11:16.417Z,15.95
2022-08-12T00:14:02.221Z,15.81
2022-08-12T00:16:50.131Z,15.72
2022-08-12T00:19:35.649Z,15.70
2022-08-12T00:22:20.764Z,15.56
2022-08-12T00:25:06.783Z,15.53
2022-08-12T00:27:52.356Z,15.49
2022-08-12T00:30:37.761Z,15.55
2022-08-12T00:33:23.067Z,15.50
2022-08-12T00:36:18.692Z,15.46
2022-08-12T00:39:21.906Z,15.40
2022-08-12T00:42:08.814Z,15.40
2022-08-12T00:44:35.326Z,15.45
2022-08-12T00:47:04.192Z,15.42
2022-08-12T00:49:31.571Z,15.28
2022-08-12T00:52:10.275Z,15.29
2022-08-12T00:54:39.010Z,15.36
2022-08-12T00:57:09.895Z,15.26
2022-08-12T00:59:43.406Z,15.24
2022-08-12T01:02:13.678Z,15.15
2022-08-12T01:05:01.740Z,15.00
2022-08-12T01:07:47.794Z,14.96
2022-08-12T01:10:33.966Z,14.97
2022-08-12T01:13:18.273Z,14.91
2022-08-12T01:15:47.717Z,14.85
2022-08-12T01:18:16.373Z,14.68
2022-08-12T01:20:53.440Z,14.68
2022-08-12T01:23:34.368Z,14.69
2022-08-12T01:26:04.268Z,14.73
2022-08-12T01:28:33.463Z,14.69
2022-08-12T01:31:05.127Z,14.60
2022-08-12T01:33:43.464Z,14.60
2022-08-12T01:36:12.952Z,14.62
2022-08-12T01:38:42.728Z,14.62
2022-08-12T01:41:11.668Z,14.64
2022-08-12T01:43:39.550Z,14.53
2022-08-12T01:46:20.126Z,14.62
2022-08-12T01:49:23.518Z,14.64
2022-08-12T01:52:15.508Z,14.51
2022-08-12T01:54:45.851Z,14.40
2022-08-12T01:57:58.264Z,14.25
2022-08-12T02:00:20.318Z,14.24
2022-08-12T02:03:30.826Z,14.21
2022-08-12T02:06:36.262Z,14.29
2022-08-12T02:09:23.255Z,14.17
2022-08-12T02:12:06.301Z,14.12
2022-08-12T02:14:57.399Z,13.98
2022-08-12T02:17:55.029Z,14.00
2022-08-12T02:20:52.254Z,13.95
2022-08-12T02:23:20.685Z,14.03
2022-08-12T02:25:47.716Z,14.06
2022-08-12T02:28:14.457Z,14.06
2022-08-12T02:30:42.758Z,14.19
2022-08-12T02:33:11.351Z,14.13
2022-08-12T02:35:39.760Z,14.03
2022-08-12T02:38:10.285Z,14.02
2022-08-12T02:40:39.838Z,13.89
2022-08-12T02:43:27.674Z,13.97
2022-08-12T02:46:01.412Z,13.80
2022-08-12T02:48:34.256Z,13.84
2022-08-12T02:51:05.244Z,13.84
2022-08-12T02:53:34.311Z,13.76
2022-08-12T02:56:05.316Z,13.71
2022-08-12T02:58:33.701Z,13.75
2022-08-12T03:01:04.791Z,13.72
2022-08-12T03:03:34.017Z,13.66
2022-08-12T03:06:22.009Z,13.65
2022-08-12T03:08:52.581Z,13.54
2022-08-12T03:11:29.306Z,13.52
2022-08-12T03:14:00.683Z,13.57
2022-08-12T03:16:33.141Z,13.46
2022-08-12T03:19:00.531Z,13.42
2022-08-12T03:21:55.397Z,13.34
2022-08-12T03:24:18.525Z,13.40
2022-08-12T03:26:47.293Z,13.27
2022-08-12T03:29:16.434Z,13.23
2022-08-12T03:31:45.466Z,13.10
2022-08-12T03:34:12.756Z,13.14
2022-08-12T03:36:41.807Z,13.11
2022-08-12T03:39:17.896Z,12.98
2022-08-12T03:42:01.623Z,13.01
2022-08-12T03:44:53.547Z,13.07
2022-08-12T03:48:02.293Z,13.08
2022-08-12T03:50:48.894Z,12.95
2022-08-12T03:53:40.637Z,13.04
2022-08-12T03:56:25.875Z,13.10
2022-08-12T03:59:13.225Z,13.11
2022-08-12T04:01:41.266Z,13.15
2022-08-12T04:04:10.827Z,13.17
2022-08-12T04:06:44.885Z,13.01
2022-08-12T04:09:15.545Z,13.10
2022-08-12T04:12:04.193Z,13.09
2022-08-12T04:14:32.659Z,12.97
2022-08-12T04:17:00.108Z,13.02
2022-08-12T04:19:27.193Z,12.98
2022-08-12T04:22:02.071Z,12.70
2022-08-12T04:24:36.758Z,12.72
2022-08-12T04:27:10.204Z,12.75
2022-08-12T04:30:29.374Z,12.90
2022-08-12T04:32:26.166Z,12.94
2022-08-12T04:34:53.223Z,12.95
2022-08-12T04:37:19.699Z,13.06
2022-08-12T04:39:47.330Z,13.00
2022-08-12T04:42:14.111Z,13.05
2022-08-12T04:44:42.133Z,13.02
2022-08-12T04:47:12.594Z,12.97
2022-08-12T04:49:40.763Z,12.79
2022-08-12T04:52:07.340Z,12.78
2022-08-12T04:54:34.484Z,12.64
2022-08-12T04:57:04.139Z,12.67
2022-08-12T04:59:48.422Z,12.91
2022-08-12T05:02:21.500Z,13.03
2022-08-12T05:04:53.291Z,13.12
2022-08-12T05:07:20.694Z,13.17
2022-08-12T05:10:00.265Z,13.30
2022-08-12T05:12:34.922Z,13.31
2022-08-12T05:15:02.068Z,13.43
2022-08-12T05:17:28.727Z,13.58
2022-08-12T05:19:57.124Z,13.71
2022-08-12T05:22:26.079Z,13.78
2022-08-12T05:24:52.822Z,13.88
2022-08-12T05:27:19.369Z,13.97
2022-08-12T05:30:06.205Z,14.07
2022-08-12T05:32:35.439Z,14.32
2022-08-12T05:35:06.877Z,14.42
2022-08-12T05:37:34.988Z,14.57
2022-08-12T05:40:08.372Z,14.66
2022-08-12T05:42:37.761Z,14.47
2022-08-12T05:45:04.917Z,14.85
2022-08-12T05:47:44.883Z,14.96
2022-08-12T05:50:17.962Z,14.83
2022-08-12T05:52:44.367Z,14.98
2022-08-12T05:55:11.705Z,15.34
2022-08-12T05:57:38.969Z,15.73
2022-08-12T06:00:06.771Z,15.83
2022-08-12T06:02:35.314Z,16.15
2022-08-12T06:05:02.624Z,17.00
2022-08-12T06:07:42.800Z,17.60
2022-08-12T06:10:31.696Z,18.36
2022-08-12T06:13:03.504Z,18.57
2022-08-12T06:15:31.492Z,19.18
2022-08-12T06:18:16.215Z,19.29
2022-08-12T06:20:43.531Z,20.08
2022-08-12T06:23:11.764Z,20.27
2022-08-12T06:25:38.534Z,20.18
2022-08-12T06:28:15.778Z,20.88
2022-08-12T06:30:42.352Z,21.04
2022-08-12T06:33:22.244Z,22.20
2022-08-12T06:35:50.710Z,22.09
2022-08-12T06:38:25.758Z,21.34
2022-08-12T06:41:14.346Z,21.78
2022-08-12T06:44:06.225Z,23.28
2022-08-12T06:46:30.897Z,23.62
2022-08-12T06:49:01.669Z,24.01
2022-08-12T06:51:31.237Z,24.65
2022-08-12T06:53:59.380Z,24.43
2022-08-12T06:56:46.023Z,24.48
2022-08-12T06:59:14.571Z,25.60
2022-08-12T07:01:41.009Z,24.81
2022-08-12T07:04:35.799Z,24.34
2022-08-12T07:07:05.621Z,23.62
2022-08-12T07:10:05.199Z,24.07
2022-08-12T07:12:19.930Z,24.76
2022-08-12T07:14:51.846Z,26.28
2022-08-12T07:17:18.836Z,26.12
2022-08-12T07:19:48.552Z,26.30
2022-08-12T07:22:16.059Z,26.33
2022-08-12T07:24:42.671Z,27.27
2022-08-12T07:27:09.678Z,27.70
2022-08-12T07:30:03.515Z,27.11
2022-08-12T07:32:25.519Z,29.02
2022-08-12T07:34:56.160Z,27.21
2022-08-12T07:37:24.200Z,27.60
2022-08-12T07:39:59.800Z,27.05
2022-08-12T07:42:27.987Z,27.50
2022-08-12T07:44:55.928Z,28.05
2022-08-12T07:47:23.192Z,28.74
2022-08-12T07:50:03.294Z,29.69
2022-08-12T07:52:33.018Z,30.41
2022-08-12T07:55:00.029Z,28.84
2022-08-12T07:57:26.447Z,27.58
2022-08-12T07:59:55.511Z,29.40
2022-08-12T08:02:35.988Z,28.83
2022-08-12T08:05:03.865Z,29.27
2022-08-12T08:07:31.047Z,29.36
2022-08-12T08:09:59.916Z,28.89
2022-08-12T08:12:46.845Z,27.30
2022-08-12T08:15:15.114Z,29.91
2022-08-12T08:18:04.939Z,28.87
2022-08-12T08:20:41.066Z,30.12
2022-08-12T08:23:14.918Z,30.97
2022-08-12T08:25:41.496Z,30.31
2022-08-12T08:28:11.651Z,29.85
2022-08-12T08:30:42.670Z,30.36
2022-08-12T08:33:22.943Z,30.54
2022-08-12T08:35:54.438Z,29.10
2022-08-12T08:38:33.170Z,29.19
2022-08-12T08:42:16.165Z,30.87
2022-08-12T08:44:11.243Z,30.46
2022-08-12T08:46:38.801Z,30.69
2022-08-12T08:49:06.075Z,30.91
2022-08-12T08:51:32.819Z,29.80
2022-08-12T08:53:59.576Z,30.32
2022-08-12T08:56:27.166Z,30.30
2022-08-12T08:58:53.622Z,29.56
2022-08-12T09:01:22.431Z,29.36
2022-08-12T09:05:07.236Z,30.36
2022-08-12T09:06:39.543Z,30.68
2022-08-12T09:09:13.306Z,30.70
2022-08-12T09:14:51.377Z,31.51
2022-08-12T09:17:21.279Z,31.04
2022-08-12T09:19:57.514Z,30.66
2022-08-12T09:25:25.709Z,30.02
2022-08-12T09:28:03.713Z,30.77
2022-08-12T09:30:41.979Z,31.18
2022-08-12T09:33:18.874Z,31.74
2022-08-12T09:36:05.021Z,31.45
2022-08-12T09:38:33.634Z,31.02
2022-08-12T09:42:33.480Z,30.40
2022-08-12T09:44:39.332Z,30.80
2022-08-12T09:47:04.015Z,28.70
2022-08-12T09:49:42.261Z,28.73
2022-08-12T09:52:15.582Z,31.73
2022-08-12T09:54:42.898Z,31.80
2022-08-12T09:58:45.471Z,32.38
2022-08-12T10:00:28.134Z,32.17
2022-08-12T10:03:31.955Z,33.19
2022-08-12T10:06:26.755Z,32.59
2022-08-12T10:08:53.745Z,32.03
2022-08-12T10:12:11.306Z,32.61
2022-08-12T10:14:34.921Z,31.69
2022-08-12T10:17:03.469Z,34.56
2022-08-12T10:19:37.779Z,32.16
2022-08-12T10:22:16.929Z,32.89
2022-08-12T10:25:17.436Z,31.69
2022-08-12T10:28:07.572Z,30.78
2022-08-12T10:30:46.912Z,32.89
2022-08-12T10:33:30.797Z,31.08
2022-08-12T10:36:01.088Z,30.27
2022-08-12T10:38:33.459Z,31.40
2022-08-12T10:41:58.830Z,31.50
2022-08-12T10:44:17.340Z,33.65
2022-08-12T10:46:49.940Z,31.21
2022-08-12T10:50:02.220Z,33.55
2022-08-12T10:52:34.683Z,32.44
2022-08-12T10:54:56.102Z,32.25
2022-08-12T10:58:14.974Z,30.64
2022-08-12T11:00:31.207Z,32.28
2022-08-12T11:04:23.647Z,31.24
2022-08-12T11:07:06.727Z,30.73
2022-08-12T11:08:43.396Z,31.75
2022-08-12T11:12:35.331Z,31.47
2022-08-12T11:14:05.524Z,29.76
2022-08-12T11:16:33.469Z,28.70
2022-08-12T11:19:03.173Z,31.85
2022-08-12T11:21:51.217Z,30.80
2022-08-12T11:24:32.048Z,32.08
2022-08-12T11:27:08.062Z,31.06
2022-08-12T11:30:00.467Z,31.85
2022-08-12T11:32:24.665Z,33.39
2022-08-12T11:34:54.859Z,33.78
2022-08-12T11:37:24.800Z,31.64
2022-08-12T11:42:39.596Z,32.58
2022-08-12T11:45:16.307Z,32.27
2022-08-12T11:47:43.678Z,31.42
2022-08-12T11:50:11.811Z,34.20
2022-08-12T11:52:56.392Z,32.08
2022-08-12T11:55:45.352Z,33.95
2022-08-12T12:00:08.853Z,32.65
2022-08-12T12:03:50.062Z,33.35
2022-08-12T12:06:19.097Z,34.06
2022-08-12T12:08:51.071Z,32.56
2022-08-12T12:11:19.858Z,34.98
2022-08-12T12:14:08.149Z,33.76
2022-08-12T12:16:39.584Z,32.85
2022-08-12T12:19:06.796Z,35.19
2022-08-12T12:21:48.636Z,35.67
2022-08-12T12:24:21.068Z,35.83
2022-08-12T12:27:00.065Z,34.87
2022-08-12T12:30:13.602Z,32.89
2022-08-12T12:32:14.892Z,33.57
2022-08-12T12:35:13.178Z,32.63
2022-08-12T12:37:59.069Z,33.30
2022-08-12T12:40:14.513Z,32.45
2022-08-12T12:42:55.627Z,33.98
2022-08-12T12:45:25.932Z,34.27
2022-08-12T12:48:11.568Z,35.91
2022-08-12T12:50:45.263Z,34.88
2022-08-12T12:54:06.919Z,31.32
2022-08-12T12:56:33.858Z,32.15
2022-08-12T12:59:05.075Z,34.60
2022-08-12T13:01:38.405Z,33.77
2022-08-12T13:04:12.379Z,32.92
2022-08-12T13:06:42.271Z,31.78
2022-08-12T13:09:13.400Z,31.16
2022-08-12T13:11:42.061Z,33.92
2022-08-12T13:14:28.671Z,31.49
2022-08-12T13:16:57.768Z,30.87
2022-08-12T13:19:38.597Z,30.94
2022-08-12T13:22:19.959Z,30.83
2022-08-12T13:24:52.090Z,30.14
2022-08-12T13:27:34.941Z,30.81
2022-08-12T13:30:12.686Z,30.46
2022-08-12T13:32:40.934Z,30.75
2022-08-12T13:35:19.757Z,30.64
2022-08-12T13:37:57.159Z,29.42
2022-08-12T13:40:26.565Z,28.66
2022-08-12T13:42:55.891Z,28.62
2022-08-12T13:45:22.778Z,28.71
2022-08-12T13:47:55.993Z,29.84
2022-08-12T13:50:36.242Z,30.53
2022-08-12T13:53:24.005Z,29.53
2022-08-12T13:56:01.980Z,29.42
2022-08-12T13:58:30.159Z,29.58
2022-08-12T14:00:58.028Z,29.45
2022-08-12T14:03:28.701Z,29.05
2022-08-12T14:06:15.202Z,28.43
2022-08-12T14:08:43.260Z,28.52
2022-08-12T14:11:12.367Z,28.49
2022-08-12T14:14:04.713Z,29.22
2022-08-12T14:16:46.720Z,29.01
2022-08-12T14:19:22.757Z,29.11
2022-08-12T14:21:59.393Z,29.16
2022-08-12T14:24:27.368Z,29.64
2022-08-12T14:27:01.998Z,29.23
2022-08-12T14:29:38.123Z,29.34
2022-08-12T14:32:17.920Z,28.84
2022-08-12T14:34:47.008Z,28.76
2022-08-12T14:37:57.414Z,28.65
2022-08-12T14:40:01.110Z,29.20
2022-08-12T14:42:28.157Z,29.45
2022-08-12T14:45:01.224Z,29.28
2022-08-12T14:47:35.292Z,29.30
2022-08-12T14:50:37.838Z,28.64
2022-08-12T14:58:32.089Z,28.64
2022-08-12T15:01:21.380Z,28.19
2022-08-12T15:03:56.781Z,28.36
2022-08-12T15:06:43.083Z,28.35
2022-08-12T15:09:14.014Z,28.71
2022-08-12T15:11:48.723Z,28.71
2022-08-12T15:14:22.254Z,28.81
2022-08-12T15:16:48.820Z,28.68
2022-08-12T15:20:27.786Z,28.73
2022-08-12T15:22:38.455Z,28.54
2022-08-12T15:24:50.207Z,28.65
2022-08-12T15:27:22.464Z,28.67
2022-08-12T15:29:58.708Z,28.67
2022-08-12T15:32:32.228Z,28.62
2022-08-12T15:35:00.757Z,28.44
2022-08-12T15:38:08.702Z,28.45
2022-08-12T15:40:14.442Z,28.37
2022-08-12T15:42:51.099Z,28.35
2022-08-12T15:45:23.779Z,28.51
2022-08-12T15:47:53.534Z,28.64
2022-08-12T15:50:45.545Z,28.27
2022-08-12T15:53:15.619Z,28.26
2022-08-12T15:55:45.733Z,28.24
2022-08-12T15:58:13.372Z,27.88
2022-08-12T16:00:43.339Z,28.22
2022-08-12T16:03:13.643Z,28.03
2022-08-12T16:06:13.032Z,27.96
2022-08-12T16:08:36.251Z,28.17
2022-08-12T16:11:07.383Z,28.13
2022-08-12T16:13:44.268Z,28.19
2022-08-12T16:16:22.812Z,28.21
2022-08-12T16:18:52.670Z,28.09
2022-08-12T16:21:52.746Z,28.28
2022-08-12T16:24:11.659Z,27.96
2022-08-12T16:26:39.419Z,27.97
2022-08-12T16:29:15.056Z,27.87
2022-08-12T16:31:43.324Z,28.10
2022-08-12T16:34:25.499Z,27.87
2022-08-12T16:37:02.016Z,27.50
2022-08-12T16:39:32.810Z,27.73
2022-08-12T16:42:28.326Z,27.71
2022-08-12T16:45:02.522Z,27.69
2022-08-12T16:47:57.256Z,27.62
2022-08-12T16:50:30.933Z,27.52
2022-08-12T16:53:02.077Z,27.66
2022-08-12T16:55:42.358Z,27.50
2022-08-12T16:58:18.581Z,27.49
2022-08-12T17:00:55.242Z,27.29
2022-08-12T17:03:29.209Z,27.50
2022-08-12T17:05:59.221Z,27.29
2022-08-12T17:08:28.962Z,27.36
2022-08-12T17:10:56.459Z,27.29
2022-08-12T17:13:26.220Z,27.28
2022-08-12T17:16:05.175Z,27.23
2022-08-12T17:18:42.838Z,27.23
2022-08-12T17:21:15.250Z,27.11
2022-08-12T17:23:53.734Z,27.14
2022-08-12T17:26:28.509Z,27.03
2022-08-12T17:29:01.656Z,26.92
2022-08-12T17:31:59.589Z,26.80
2022-08-12T17:34:38.380Z,26.74
2022-08-12T17:37:07.989Z,26.63
2022-08-12T17:40:15.209Z,26.57
2022-08-12T17:42:32.626Z,26.62
2022-08-12T17:45:16.947Z,26.53
2022-08-12T17:48:01.215Z,26.38
2022-08-12T17:50:31.996Z,26.35
2022-08-12T17:53:02.487Z,26.37
2022-08-12T17:55:43.858Z,26.29
2022-08-12T17:58:17.351Z,26.27
2022-08-12T18:00:45.901Z,26.22
2022-08-12T18:04:05.458Z,26.14
2022-08-12T18:06:13.751Z,26.14
2022-08-12T18:08:54.946Z,26.05
2022-08-12T18:12:04.479Z,25.98
2022-08-12T18:14:30.279Z,25.95
2022-08-12T18:17:00.357Z,25.87
2022-08-12T18:19:34.096Z,25.82
2022-08-12T18:22:22.259Z,25.77
2022-08-12T18:25:04.773Z,25.70
2022-08-12T18:27:44.181Z,25.65
2022-08-12T18:30:21.056Z,25.58
2022-08-12T18:33:03.492Z,25.52
2022-08-12T18:35:46.384Z,25.48
2022-08-12T18:38:20.515Z,25.39
2022-08-12T18:41:09.764Z,25.30
2022-08-12T18:43:58.789Z,25.26
2022-08-12T18:46:48.909Z,25.21
2022-08-12T18:49:39.178Z,25.16
2022-08-12T18:52:08.627Z,25.06
2022-08-12T18:54:48.778Z,25.08
2022-08-12T18:58:06.405Z,25.00
2022-08-12T19:00:08.051Z,24.91
2022-08-12T19:02:39.697Z,24.87
2022-08-12T19:05:13.277Z,24.82
2022-08-12T19:07:58.099Z,24.71
2022-08-12T19:10:28.439Z,24.74
2022-08-12T19:13:24.051Z,24.65
2022-08-12T19:15:57.986Z,24.60
2022-08-12T19:18:30.219Z,24.50
2022-08-12T19:21:06.517Z,24.39
2022-08-12T19:23:39.071Z,24.19
2022-08-12T19:26:10.814Z,24.03
2022-08-12T19:28:40.020Z,24.02
2022-08-12T19:31:55.821Z,23.92
2022-08-12T19:38:04.513Z,23.56
2022-08-12T19:40:20.577Z,23.45
2022-08-12T19:43:01.426Z,23.40
2022-08-12T19:45:41.869Z,23.41
2022-08-12T19:48:16.907Z,23.33
2022-08-12T19:50:50.662Z,23.22
2022-08-12T19:53:22.770Z,23.23
2022-08-12T19:55:52.918Z,23.22
2022-08-12T19:58:20.880Z,23.13
2022-08-12T20:00:53.189Z,23.14
2022-08-12T20:03:38.348Z,22.97
2022-08-12T20:06:13.899Z,22.98
2022-08-12T20:08:47.890Z,22.84
2022-08-12T20:12:13.334Z,22.89
2022-08-12T20:14:09.521Z,22.86
2022-08-12T20:19:52.147Z,22.83
2022-08-12T20:22:24.704Z,22.62
2022-08-12T20:25:02.129Z,22.61
2022-08-12T20:28:05.037Z,22.42
2022-08-12T20:30:20.786Z,22.55
2022-08-12T20:33:17.681Z,22.44
2022-08-12T20:36:12.934Z,21.87
2022-08-12T20:38:34.546Z,21.45
2022-08-12T20:41:17.858Z,21.34
2022-08-12T20:43:50.016Z,21.08
2022-08-12T20:46:19.164Z,20.96
2022-08-12T20:48:46.970Z,20.81
2022-08-12T20:51:21.977Z,20.64
2022-08-12T20:53:58.639Z,20.39
2022-08-12T20:56:34.903Z,20.55
2022-08-12T20:59:09.543Z,20.50
2022-08-12T21:01:46.926Z,20.43
2022-08-12T21:04:35.114Z,20.17
2022-08-12T21:07:04.675Z,20.00
2022-08-12T21:09:47.567Z,19.83
2022-08-12T21:12:31.340Z,19.69
2022-08-12T21:15:16.628Z,19.76
2022-08-12T21:18:15.500Z,19.70
2022-08-12T21:20:50.923Z,19.68
2022-08-12T21:23:21.282Z,19.55
2022-08-12T21:25:49.123Z,19.54
2022-08-12T21:28:18.905Z,19.40
2022-08-12T21:31:10.462Z,19.42
2022-08-12T21:33:58.446Z,19.33
2022-08-12T21:36:22.569Z,19.25
2022-08-12T21:39:01.890Z,19.17
2022-08-12T21:41:45.841Z,19.02
2022-08-12T21:44:24.117Z,18.89
2022-08-12T21:47:20.233Z,18.84
2022-08-12T21:49:54.666Z,18.76
2022-08-12T21:52:34.158Z,18.72
2022-08-12T21:55:02.437Z,18.59
2022-08-12T21:57:36.543Z,18.45
2022-08-12T22:00:18.991Z,18.38
2022-08-12T22:03:05.224Z,18.27
2022-08-12T22:05:51.652Z,18.24
2022-08-12T22:08:22.099Z,18.19
2022-08-12T22:10:52.348Z,18.15
2022-08-12T22:14:02.614Z,18.09
2022-08-12T22:16:07.629Z,17.92
2022-08-12T22:18:35.149Z,17.89
2022-08-12T22:21:01.571Z,17.83
2022-08-12T22:23:28.617Z,17.66
2022-08-12T22:26:28.936Z,17.64
2022-08-12T22:29:17.226Z,17.65
2022-08-12T22:31:45.862Z,17.61
2022-08-12T22:34:18.214Z,17.56
2022-08-12T22:36:45.735Z,17.60
2022-08-12T22:39:15.693Z,17.48
2022-08-12T22:42:02.848Z,17.32
2022-08-12T22:45:02.164Z,17.32
2022-08-12T22:47:54.205Z,17.15
2022-08-12T22:50:27.449Z,17.10
2022-08-12T22:53:16.413Z,17.18
2022-08-12T22:56:00.722Z,17.14
2022-08-12T22:58:34.042Z,17.10
2022-08-12T23:01:01.796Z,17.05
2022-08-12T23:03:46.899Z,16.96
2022-08-12T23:06:16.623Z,16.99
2022-08-12T23:08:43.495Z,16.91
2022-08-12T23:11:10.173Z,16.96
2022-08-12T23:13:47.248Z,16.92
2022-08-12T23:16:28.362Z,16.86
2022-08-12T23:19:10.775Z,16.84
2022-08-12T23:22:05.240Z,16.80
2022-08-12T23:24:55.599Z,16.66
2022-08-12T23:27:44.476Z,16.62
2022-08-12T23:30:25.255Z,16.57
2022-08-12T23:33:00.716Z,16.44
2022-08-12T23:35:45.943Z,16.38
2022-08-12T23:38:30.354Z,16.37
2022-08-12T23:41:02.311Z,16.45
2022-08-12T23:43:39.095Z,16.41
2022-08-12T23:46:19.179Z,16.39
2022-08-12T23:48:48.172Z,16.30
2022-08-12T23:51:23.405Z,16.31
2022-08-12T23:53:59.774Z,16.47
2022-08-12T23:56:26.762Z,16.60
2022-08-12T23:58:57.501Z,16.47
